Time;durP1;ratioP1;P1;durP2;ratioP2;P2;SDS_P1;SDS_P2;PMS_P1;PMS_P2;Temp;Humidity;BMP_temperature;BMP_pressure;BME280_temperature;BME280_humidity;BME280_pressure;Samples;Min_cycle;Max_cycle;Signal;HPM_P1;HPM_P2
2022/08/30 00:01:45;;;;;;;13.98;12.00;;;28.30;1.00;;;;;;5033450;28;20032;-51
2022/08/30 00:04:10;;;;;;;15.30;13.80;;;28.30;1.00;;;;;;5033714;28;20109;-53
2022/08/30 00:06:36;;;;;;;12.57;11.27;;;28.30;1.00;;;;;;5029982;28;20555;-52
2022/08/30 00:09:02;;;;;;;13.20;11.77;;;28.30;1.00;;;;;;5033321;28;20041;-51
2022/08/30 00:11:28;;;;;;;14.50;13.10;;;28.30;1.00;;;;;;5042739;28;20459;-53
2022/08/30 00:13:56;;;;;;;13.65;12.25;;;28.30;1.00;;;;;;5031849;28;20084;-50
2022/08/30 00:16:24;;;;;;;15.60;12.80;;;28.30;1.00;;;;;;5031023;28;20479;-55
2022/08/30 00:18:50;;;;;;;14.98;13.43;;;28.30;1.00;;;;;;5032869;28;20625;-54
2022/08/30 00:21:15;;;;;;;15.85;14.35;;;28.30;1.00;;;;;;5033110;28;20085;-53
2022/08/30 00:23:41;;;;;;;15.77;14.38;;;28.20;1.00;;;;;;5032427;28;20030;-51
2022/08/30 00:26:07;;;;;;;17.15;15.45;;;28.20;1.00;;;;;;5032796;28;20048;-53
2022/08/30 00:28:33;;;;;;;17.77;15.95;;;28.20;1.00;;;;;;5032057;28;20427;-50
2022/08/30 00:31:00;;;;;;;16.63;14.93;;;28.10;1.00;;;;;;5032718;28;20424;-55
2022/08/30 00:33:27;;;;;;;18.15;15.57;;;28.10;1.00;;;;;;5031969;28;20438;-51
2022/08/30 00:35:53;;;;;;;16.08;14.68;;;28.10;1.00;;;;;;5030848;28;20112;-51
2022/08/30 00:38:19;;;;;;;16.40;14.32;;;28.20;1.00;;;;;;5050942;28;20384;-51
2022/08/30 00:40:45;;;;;;;17.95;16.05;;;28.20;1.00;;;;;;5032306;28;20033;-52
2022/08/30 00:43:24;;;;;;;16.42;14.82;;;28.10;1.00;;;;;;5039456;28;20037;-50
2022/08/30 00:45:56;;;;;;;15.00;13.60;;;28.10;1.00;;;;;;5032738;28;20038;-51
2022/08/30 00:48:25;;;;;;;15.23;13.82;;;28.10;1.00;;;;;;5039366;28;20479;-50
2022/08/30 00:50:55;;;;;;;13.23;12.00;;;28.10;1.00;;;;;;5021768;28;20379;-53
2022/08/30 00:53:32;;;;;;;13.25;11.95;;;28.10;1.00;;;;;;5019187;28;20468;-55
2022/08/30 00:56:27;;;;;;;15.50;13.85;;;28.20;1.00;;;;;;5030356;28;20107;-55
2022/08/30 00:58:56;;;;;;;13.75;12.50;;;28.10;1.00;;;;;;5027550;28;20056;-55
2022/08/30 01:01:22;;;;;;;14.70;13.40;;;28.10;1.00;;;;;;5039910;28;20025;-55
2022/08/30 01:03:48;;;;;;;16.33;14.18;;;28.10;1.00;;;;;;5030328;28;20506;-55
2022/08/30 01:06:15;;;;;;;13.50;11.95;;;28.00;1.00;;;;;;5030770;28;20045;-55
2022/08/30 01:08:41;;;;;;;14.80;13.27;;;28.00;1.00;;;;;;5031492;28;20021;-55
2022/08/30 01:11:12;;;;;;;15.05;13.20;;;28.00;1.00;;;;;;5036993;28;20052;-55
2022/08/30 01:13:39;;;;;;;13.88;12.68;;;27.90;1.00;;;;;;5032327;28;20158;-54
2022/08/30 01:16:05;;;;;;;13.93;12.63;;;27.90;1.00;;;;;;5035534;28;20116;-52
2022/08/30 01:18:31;;;;;;;14.55;12.98;;;27.90;1.00;;;;;;5031344;28;20104;-55
2022/08/30 01:21:22;;;;;;;13.07;11.73;;;27.90;1.00;;;;;;5036991;28;20033;-50
2022/08/30 01:23:50;;;;;;;14.23;12.77;;;27.90;1.00;;;;;;5032120;28;20080;-53
2022/08/30 01:26:16;;;;;;;14.63;12.23;;;27.90;1.00;;;;;;5030651;28;20051;-53
2022/08/30 01:28:47;;;;;;;14.32;12.90;;;27.90;1.00;;;;;;5031702;28;20332;-52
2022/08/30 01:31:13;;;;;;;14.60;13.25;;;27.90;1.00;;;;;;5045643;28;20033;-54
2022/08/30 01:33:39;;;;;;;16.35;14.85;;;27.80;1.00;;;;;;5035593;28;20025;-52
2022/08/30 01:36:09;;;;;;;15.88;14.48;;;27.80;1.00;;;;;;5037462;28;20395;-49
2022/08/30 01:41:57;;;;;;;15.55;13.90;;;27.80;1.00;;;;;;5024020;28;20111;-53
2022/08/30 01:44:23;;;;;;;16.55;15.15;;;27.70;1.00;;;;;;5031852;28;20025;-54
2022/08/30 01:46:48;;;;;;;17.58;15.77;;;27.70;1.00;;;;;;5031734;28;20348;-56
2022/08/30 01:49:16;;;;;;;17.77;16.23;;;27.70;1.00;;;;;;5032351;28;20018;-56
2022/08/30 01:51:42;;;;;;;18.35;16.65;;;27.70;1.00;;;;;;5036875;28;20028;-52
2022/08/30 01:54:09;;;;;;;17.17;15.40;;;27.70;1.00;;;;;;5032324;28;20025;-55
2022/08/30 01:56:34;;;;;;;19.75;17.83;;;27.70;1.00;;;;;;5037977;28;20394;-55
2022/08/30 01:59:06;;;;;;;21.50;17.90;;;27.70;1.00;;;;;;5038248;28;20025;-52
2022/08/30 02:01:35;;;;;;;21.02;18.92;;;27.70;1.00;;;;;;5032991;28;20025;-52
2022/08/30 02:04:02;;;;;;;19.48;17.67;;;27.70;1.00;;;;;;5024718;28;20056;-52
2022/08/30 02:06:27;;;;;;;20.08;18.17;;;27.70;1.00;;;;;;5034331;28;20070;-54
2022/08/30 02:08:53;;;;;;;20.35;18.30;;;27.60;1.00;;;;;;5035490;28;20038;-51
2022/08/30 02:11:19;;;;;;;19.70;17.80;;;27.60;1.00;;;;;;5033806;28;20119;-53
2022/08/30 02:13:45;;;;;;;21.58;18.00;;;27.60;1.00;;;;;;5034244;28;20379;-50
2022/08/30 02:16:14;;;;;;;19.83;18.02;;;27.60;1.00;;;;;;5034914;28;20310;-50
2022/08/30 02:18:41;;;;;;;19.65;17.85;;;27.60;1.00;;;;;;5040888;28;20463;-49
2022/08/30 02:21:08;;;;;;;18.70;17.10;;;27.60;1.00;;;;;;5034210;28;20467;-54
2022/08/30 02:23:35;;;;;;;19.73;17.58;;;27.60;1.00;;;;;;5027031;28;20116;-53
2022/08/30 02:26:00;;;;;;;17.95;16.25;;;27.60;1.00;;;;;;5033730;28;20464;-50
2022/08/30 02:28:29;;;;;;;18.17;16.55;;;27.60;1.00;;;;;;5042195;28;20112;-53
2022/08/30 02:30:55;;;;;;;17.95;16.27;;;27.60;1.00;;;;;;5034468;28;20036;-54
2022/08/30 02:33:20;;;;;;;19.33;17.40;;;27.60;1.00;;;;;;5034229;28;20025;-52
2022/08/30 02:35:46;;;;;;;18.08;16.38;;;27.60;1.00;;;;;;5033890;28;20025;-51
2022/08/30 02:38:13;;;;;;;18.38;16.58;;;27.50;1.00;;;;;;5033070;28;20033;-51
2022/08/30 02:40:38;;;;;;;17.67;15.98;;;27.50;1.00;;;;;;5034831;28;20546;-52
2022/08/30 02:43:04;;;;;;;18.85;16.98;;;27.50;1.00;;;;;;5032625;28;20137;-50
2022/08/30 02:45:30;;;;;;;19.08;17.30;;;27.40;1.00;;;;;;5034793;28;20014;-51
2022/08/30 02:47:55;;;;;;;18.75;17.02;;;27.30;1.00;;;;;;5034743;28;20502;-55
2022/08/30 02:50:23;;;;;;;18.40;16.70;;;27.30;1.00;;;;;;5034650;28;20449;-53
2022/08/30 02:52:48;;;;;;;18.60;17.00;;;27.40;1.00;;;;;;5036056;28;20025;-52
2022/08/30 02:55:23;;;;;;;18.55;16.73;;;27.30;1.00;;;;;;5034732;28;20025;-55
2022/08/30 02:57:50;;;;;;;19.77;17.77;;;27.20;1.00;;;;;;5040724;28;20072;-54
2022/08/30 03:00:18;;;;;;;18.15;16.27;;;27.10;1.00;;;;;;5033240;28;20017;-54
2022/08/30 03:02:43;;;;;;;17.25;15.68;;;27.10;1.00;;;;;;5034731;28;20542;-52
2022/08/30 03:05:11;;;;;;;18.08;16.15;;;27.20;1.00;;;;;;5034451;28;20056;-54
2022/08/30 03:07:38;;;;;;;17.27;15.77;;;27.20;1.00;;;;;;5032178;28;20045;-52
2022/08/30 03:10:04;;;;;;;18.67;16.98;;;27.10;1.00;;;;;;5031567;28;20092;-50
2022/08/30 03:12:32;;;;;;;16.23;14.70;;;27.10;1.00;;;;;;5037214;28;20513;-54
2022/08/30 03:14:58;;;;;;;18.13;15.55;;;27.10;1.00;;;;;;5033775;28;20071;-53
2022/08/30 03:17:24;;;;;;;16.90;15.30;;;27.10;1.00;;;;;;5034081;28;20517;-53
2022/08/30 03:19:50;;;;;;;17.17;15.55;;;27.10;1.00;;;;;;5034886;28;20025;-51
2022/08/30 03:22:16;;;;;;;18.00;16.08;;;27.10;1.00;;;;;;5034177;28;20025;-54
2022/08/30 03:24:42;;;;;;;16.48;14.88;;;27.10;1.00;;;;;;5033451;28;20029;-52
2022/08/30 03:27:07;;;;;;;17.38;15.43;;;27.10;1.00;;;;;;5032469;28;20029;-53
2022/08/30 03:29:34;;;;;;;15.88;14.38;;;27.10;1.00;;;;;;5033835;28;20092;-53
2022/08/30 03:31:59;;;;;;;17.83;16.13;;;27.10;1.00;;;;;;5033983;28;20040;-54
2022/08/30 03:34:26;;;;;;;19.92;18.02;;;27.10;1.00;;;;;;5032926;28;20025;-55
2022/08/30 03:36:54;;;;;;;19.80;17.08;;;26.80;1.00;;;;;;5033872;28;20057;-54
2022/08/30 03:39:20;;;;;;;17.90;16.10;;;26.90;1.00;;;;;;5032841;28;20112;-53
2022/08/30 03:41:58;;;;;;;18.55;16.75;;;26.90;1.00;;;;;;5032283;28;20060;-54
2022/08/30 03:44:24;;;;;;;20.00;18.10;;;26.80;1.00;;;;;;5036958;28;20026;-53
2022/08/30 03:46:50;;;;;;;18.63;16.85;;;26.70;1.00;;;;;;5023304;28;20099;-53
2022/08/30 03:49:17;;;;;;;19.27;17.38;;;26.80;1.00;;;;;;5037664;28;20024;-53
2022/08/30 03:51:43;;;;;;;19.83;17.73;;;26.80;1.00;;;;;;5033664;28;20084;-52
2022/08/30 03:54:11;;;;;;;20.08;18.05;;;26.70;1.00;;;;;;5035770;28;20021;-52
2022/08/30 03:56:37;;;;;;;20.30;18.30;;;26.60;1.00;;;;;;5019646;28;20186;-55
2022/08/30 03:59:03;;;;;;;19.70;17.70;;;26.70;1.00;;;;;;5032752;28;20113;-53
2022/08/30 04:01:29;;;;;;;21.00;19.00;;;26.70;1.00;;;;;;5033292;28;20078;-51
2022/08/30 04:03:55;;;;;;;22.80;20.80;;;26.70;1.00;;;;;;5032728;28;20104;-54
2022/08/30 04:06:21;;;;;;;22.33;19.95;;;26.70;1.00;;;;;;5033186;28;20021;-50
2022/08/30 04:08:50;;;;;;;24.63;22.10;;;26.70;1.00;;;;;;5031974;28;20045;-54
2022/08/30 04:11:16;;;;;;;23.25;21.15;;;26.70;1.00;;;;;;5042353;28;20018;-54
2022/08/30 04:13:42;;;;;;;23.33;21.25;;;26.70;1.00;;;;;;5030771;28;21617;-52
2022/08/30 04:16:09;;;;;;;24.60;22.20;;;26.70;1.00;;;;;;5027509;28;20033;-55
2022/08/30 04:18:35;;;;;;;26.98;24.48;;;26.70;1.00;;;;;;5029469;28;20921;-54
2022/08/30 04:21:02;;;;;;;28.20;25.27;;;26.60;1.00;;;;;;5029370;28;20037;-55
2022/08/30 04:23:29;;;;;;;27.70;24.60;;;26.30;1.00;;;;;;5030852;28;20030;-54
2022/08/30 04:25:55;;;;;;;27.75;25.30;;;26.50;1.00;;;;;;5031860;28;20120;-54
2022/08/30 04:28:21;;;;;;;28.05;25.38;;;26.60;1.00;;;;;;5032698;28;20436;-53
2022/08/30 04:30:47;;;;;;;29.00;26.35;;;26.50;1.00;;;;;;5039649;28;20041;-53
2022/08/30 04:33:15;;;;;;;29.75;26.85;;;26.50;1.00;;;;;;5032713;28;20030;-55
2022/08/30 04:35:47;;;;;;;30.00;27.02;;;26.50;1.00;;;;;;5028784;28;20025;-50
2022/08/30 04:38:13;;;;;;;28.42;25.52;;;26.60;1.00;;;;;;5033003;28;20029;-54
2022/08/30 04:40:43;;;;;;;28.92;25.95;;;26.60;1.00;;;;;;5031647;28;20022;-52
2022/08/30 04:43:11;;;;;;;26.10;23.67;;;26.60;1.00;;;;;;5031086;28;20061;-53
2022/08/30 04:45:38;;;;;;;28.08;25.40;;;26.60;1.00;;;;;;5029949;28;20103;-51
2022/08/30 04:48:05;;;;;;;30.05;27.05;;;26.60;1.00;;;;;;5032466;28;20036;-51
2022/08/30 04:50:31;;;;;;;28.45;25.52;;;26.60;1.00;;;;;;5033533;28;20025;-52
2022/08/30 04:52:56;;;;;;;28.23;25.05;;;26.60;1.00;;;;;;5032706;28;20113;-54
2022/08/30 04:55:24;;;;;;;28.88;25.92;;;26.50;1.00;;;;;;5035526;28;20053;-54
2022/08/30 04:57:51;;;;;;;27.80;25.10;;;26.50;1.00;;;;;;5030655;28;20044;-55
2022/08/30 05:00:19;;;;;;;29.08;26.40;;;26.50;1.00;;;;;;5038025;28;20029;-53
2022/08/30 05:02:46;;;;;;;28.88;26.23;;;26.50;1.00;;;;;;5032260;28;20049;-54
2022/08/30 05:08:33;;;;;;;27.08;24.48;;;26.40;1.00;;;;;;5026667;28;20207;-55
2022/08/30 05:11:03;;;;;;;25.63;23.23;;;26.40;1.00;;;;;;5032417;28;20112;-55
2022/08/30 05:13:29;;;;;;;26.15;23.65;;;26.40;1.00;;;;;;5032044;28;20033;-52
2022/08/30 05:15:55;;;;;;;28.98;25.90;;;26.30;1.00;;;;;;5031490;28;20022;-54
2022/08/30 05:18:21;;;;;;;28.27;25.40;;;26.30;1.00;;;;;;5032305;28;20538;-53
2022/08/30 05:21:06;;;;;;;26.95;24.23;;;26.30;1.00;;;;;;5035146;28;20541;-54
2022/08/30 05:23:32;;;;;;;29.70;25.88;;;26.40;1.00;;;;;;5030098;28;20048;-54
2022/08/30 05:25:57;;;;;;;28.83;26.08;;;26.30;1.00;;;;;;5022893;28;20080;-52
2022/08/30 05:28:23;;;;;;;28.85;25.95;;;26.40;1.00;;;;;;5031465;28;20056;-55
2022/08/30 05:30:49;;;;;;;26.73;24.23;;;26.30;1.00;;;;;;5023990;28;20033;-55
2022/08/30 05:33:14;;;;;;;29.63;26.73;;;26.20;1.00;;;;;;5029230;28;20034;-55
2022/08/30 05:42:24;;;;;;;29.50;26.55;;;26.10;1.00;;;;;;5016345;28;20083;-55
2022/08/30 05:44:51;;;;;;;30.30;27.38;;;26.20;1.00;;;;;;5032614;28;20061;-51
2022/08/30 05:47:17;;;;;;;31.65;28.30;;;26.20;1.00;;;;;;5034163;28;20399;-55
2022/08/30 05:49:43;;;;;;;31.92;28.75;;;26.20;1.00;;;;;;5041363;28;20408;-56
2022/08/30 05:52:09;;;;;;;30.80;27.73;;;26.20;1.00;;;;;;5030229;28;20038;-56
2022/08/30 05:57:56;;;;;;;31.08;27.77;;;26.20;1.00;;;;;;5027960;28;20098;-55
2022/08/30 06:00:22;;;;;;;30.45;27.63;;;26.20;1.00;;;;;;5030513;28;20416;-55
2022/08/30 06:02:52;;;;;;;30.98;27.90;;;26.20;1.00;;;;;;5032012;28;20175;-53
2022/08/30 06:05:18;;;;;;;31.23;28.10;;;26.10;1.00;;;;;;5022112;28;20128;-54
2022/08/30 06:07:43;;;;;;;30.20;27.38;;;26.10;1.00;;;;;;5029629;28;20101;-52
2022/08/30 06:10:11;;;;;;;29.55;26.35;;;26.30;1.00;;;;;;5031667;28;20108;-56
2022/08/30 06:12:36;;;;;;;28.98;26.00;;;26.30;1.00;;;;;;5030325;28;20425;-55
2022/08/30 06:15:14;;;;;;;28.20;25.58;;;26.40;1.00;;;;;;5031075;28;20059;-56
2022/08/30 06:17:41;;;;;;;25.67;23.20;;;26.30;1.00;;;;;;5030706;28;20390;-56
2022/08/30 06:20:07;;;;;;;27.35;24.65;;;26.40;1.00;;;;;;5031177;28;20574;-53
2022/08/30 06:22:33;;;;;;;28.38;24.85;;;26.50;1.00;;;;;;5037648;28;20039;-56
2022/08/30 06:24:59;;;;;;;25.50;22.95;;;26.60;1.00;;;;;;5031009;28;20025;-54
2022/08/30 06:27:24;;;;;;;28.88;25.15;;;26.60;1.00;;;;;;5030150;28;20044;-56
2022/08/30 06:29:53;;;;;;;26.58;23.08;;;26.60;1.00;;;;;;5031078;28;20025;-52
2022/08/30 06:32:18;;;;;;;26.50;23.75;;;26.60;1.00;;;;;;5035354;28;20127;-52
2022/08/30 06:34:44;;;;;;;25.48;23.02;;;26.60;1.00;;;;;;5036212;28;20079;-55
2022/08/30 06:37:10;;;;;;;25.67;23.25;;;26.60;1.00;;;;;;5033822;28;20124;-53
2022/08/30 06:39:35;;;;;;;26.23;23.52;;;26.60;1.00;;;;;;5039433;28;20022;-53
2022/08/30 06:42:01;;;;;;;24.52;22.13;;;26.70;1.00;;;;;;5031182;28;20058;-53
2022/08/30 06:44:26;;;;;;;25.25;22.75;;;26.70;1.00;;;;;;5034804;28;20501;-54
2022/08/30 06:46:52;;;;;;;24.38;21.75;;;26.70;1.00;;;;;;5032105;28;20038;-52
2022/08/30 06:49:20;;;;;;;25.88;21.50;;;26.80;1.00;;;;;;5033958;28;20025;-54
2022/08/30 06:51:45;;;;;;;23.02;20.73;;;26.80;1.00;;;;;;5032692;28;20082;-55
2022/08/30 06:54:11;;;;;;;22.23;20.08;;;26.90;1.00;;;;;;5048235;28;20025;-55
2022/08/30 06:56:38;;;;;;;22.52;19.10;;;26.90;1.00;;;;;;5034504;28;20033;-54
2022/08/30 06:59:04;;;;;;;24.88;20.70;;;27.00;1.00;;;;;;5033532;28;20123;-54
2022/08/30 07:01:30;;;;;;;23.77;21.38;;;27.00;1.00;;;;;;5034458;28;20036;-55
2022/08/30 07:03:57;;;;;;;21.52;19.33;;;26.90;1.00;;;;;;5033497;28;20022;-56
2022/08/30 07:06:24;;;;;;;20.67;18.65;;;26.90;1.00;;;;;;5034251;28;20096;-51
2022/08/30 07:08:50;;;;;;;21.30;18.90;;;26.80;1.00;;;;;;5033543;28;20026;-57
2022/08/30 07:11:29;;;;;;;20.52;18.50;;;27.00;1.00;;;;;;5034640;28;20132;-53
2022/08/30 07:13:54;;;;;;;25.80;19.48;;;27.20;1.00;;;;;;5021994;28;20512;-55
2022/08/30 07:16:20;;;;;;;21.08;18.02;;;27.20;1.00;;;;;;5034168;28;20052;-54
2022/08/30 07:18:55;;;;;;;17.25;15.52;;;27.20;1.00;;;;;;5036504;28;20109;-57
2022/08/30 07:21:34;;;;;;;17.95;16.25;;;27.20;1.00;;;;;;5034153;28;20053;-55
2022/08/30 07:24:00;;;;;;;17.40;14.45;;;27.20;1.00;;;;;;5041311;28;20029;-52
2022/08/30 07:26:32;;;;;;;14.50;13.30;;;27.20;1.00;;;;;;5033627;28;20041;-56
2022/08/30 07:28:58;;;;;;;16.75;13.90;;;27.20;1.00;;;;;;5033156;28;20091;-56
2022/08/30 07:31:24;;;;;;;15.63;13.98;;;27.30;1.00;;;;;;5033742;28;20025;-56
2022/08/30 07:33:51;;;;;;;14.23;12.80;;;27.20;1.00;;;;;;5042450;28;20060;-57
2022/08/30 07:36:17;;;;;;;16.45;14.07;;;27.30;1.00;;;;;;5034020;28;20175;-57
2022/08/30 07:38:47;;;;;;;15.15;13.68;;;27.20;1.00;;;;;;5042485;28;20025;-54
2022/08/30 07:41:25;;;;;;;15.68;14.07;;;27.20;1.00;;;;;;5033636;28;20375;-53
2022/08/30 07:43:51;;;;;;;15.80;14.25;;;27.30;1.00;;;;;;5032815;28;20034;-52
2022/08/30 07:46:20;;;;;;;15.18;13.65;;;27.40;1.00;;;;;;5033701;28;20134;-55
2022/08/30 07:48:46;;;;;;;13.93;12.68;;;27.40;1.00;;;;;;5042216;28;20056;-54
2022/08/30 07:51:14;;;;;;;12.85;11.65;;;27.40;1.00;;;;;;5033804;28;20134;-55
2022/08/30 07:53:40;;;;;;;14.32;13.02;;;27.40;1.00;;;;;;5031625;28;20040;-52
2022/08/30 07:56:06;;;;;;;16.33;11.80;;;27.30;1.00;;;;;;5033886;28;20021;-56
2022/08/30 07:58:32;;;;;;;15.13;12.57;;;27.50;1.00;;;;;;5032699;28;20029;-56
2022/08/30 08:00:58;;;;;;;14.85;13.35;;;27.60;1.00;;;;;;5033445;28;20116;-58
2022/08/30 08:03:27;;;;;;;14.20;12.80;;;27.60;1.00;;;;;;5041552;28;20029;-55
2022/08/30 08:05:54;;;;;;;18.50;13.82;;;27.80;1.00;;;;;;5035641;28;20033;-57
2022/08/30 08:08:20;;;;;;;16.83;14.15;;;27.70;1.00;;;;;;5040995;28;20411;-56
2022/08/30 08:10:46;;;;;;;15.45;13.85;;;27.40;1.00;;;;;;5035464;28;20029;-57
2022/08/30 08:13:11;;;;;;;14.57;12.98;;;27.60;1.00;;;;;;5040462;28;20107;-57
2022/08/30 08:15:37;;;;;;;16.48;14.60;;;27.60;1.00;;;;;;5036695;28;20079;-56
2022/08/30 08:18:04;;;;;;;15.68;13.13;;;27.70;1.00;;;;;;5033352;28;20029;-52
2022/08/30 08:20:30;;;;;;;14.48;12.73;;;27.80;1.00;;;;;;5033717;28;20482;-57
2022/08/30 08:22:56;;;;;;;14.93;13.40;;;27.80;1.00;;;;;;5035905;28;20033;-55
2022/08/30 08:25:22;;;;;;;14.73;13.23;;;27.80;1.00;;;;;;5033088;28;20048;-56
2022/08/30 08:27:49;;;;;;;13.82;12.50;;;27.80;1.00;;;;;;5029726;28;20045;-56
2022/08/30 08:30:17;;;;;;;14.35;12.95;;;27.80;1.00;;;;;;5029778;28;20129;-57
2022/08/30 08:32:43;;;;;;;15.55;13.95;;;27.70;1.00;;;;;;5031282;28;20096;-57
2022/08/30 08:35:10;;;;;;;16.05;13.20;;;27.70;1.00;;;;;;5034703;28;20041;-56
2022/08/30 08:37:36;;;;;;;15.50;14.07;;;27.60;1.00;;;;;;5033180;28;20034;-55
2022/08/30 08:40:03;;;;;;;15.40;12.52;;;27.70;1.00;;;;;;5033003;28;20036;-55
2022/08/30 08:42:35;;;;;;;17.35;14.00;;;28.00;1.00;;;;;;5031868;28;20049;-55
2022/08/30 08:45:10;;;;;;;14.45;13.05;;;28.00;1.00;;;;;;5032742;28;20044;-55
2022/08/30 08:48:05;;;;;;;18.55;13.13;;;28.10;1.00;;;;;;5030560;28;20076;-56
2022/08/30 08:50:31;;;;;;;17.60;12.70;;;28.20;1.00;;;;;;5031391;28;20029;-55
2022/08/30 08:53:36;;;;;;;12.27;11.02;;;28.40;1.00;;;;;;5031896;28;20075;-53
2022/08/30 08:56:05;;;;;;;15.45;12.75;;;28.50;1.00;;;;;;5034650;28;20033;-58
2022/08/30 08:58:40;;;;;;;14.35;11.75;;;28.50;1.00;;;;;;5031649;28;20455;-57
2022/08/30 09:01:07;;;;;;;13.10;11.77;;;28.50;1.00;;;;;;5032819;28;20033;-57
2022/08/30 09:03:34;;;;;;;13.52;12.15;;;28.50;1.00;;;;;;5031361;28;20029;-56
2022/08/30 09:06:03;;;;;;;12.90;11.70;;;28.40;1.00;;;;;;5032654;28;20030;-57
2022/08/30 09:08:28;;;;;;;11.07;10.05;;;28.30;1.00;;;;;;5039371;28;20029;-55
2022/08/30 09:11:04;;;;;;;11.73;10.52;;;28.20;1.00;;;;;;5033164;28;20479;-56
2022/08/30 09:13:30;;;;;;;14.48;11.70;;;28.30;1.00;;;;;;5039975;28;20027;-58
2022/08/30 09:15:57;;;;;;;12.68;11.30;;;28.30;1.00;;;;;;5032496;28;20021;-52
2022/08/30 09:18:45;;;;;;;11.48;10.27;;;28.20;1.00;;;;;;5031489;28;20107;-57
2022/08/30 09:21:12;;;;;;;12.32;9.98;;;28.20;1.00;;;;;;5036319;28;20029;-57
2022/08/30 09:23:48;;;;;;;11.75;9.95;;;28.10;1.00;;;;;;5034651;28;20495;-55
2022/08/30 09:26:29;;;;;;;10.65;9.57;;;28.10;1.00;;;;;;5032118;28;20033;-57
2022/08/30 09:28:55;;;;;;;11.90;9.98;;;28.10;1.00;;;;;;5040390;28;20075;-56
2022/08/30 09:31:27;;;;;;;10.88;8.25;;;28.10;1.00;;;;;;5036683;28;20131;-57
2022/08/30 09:33:53;;;;;;;13.85;10.77;;;28.00;1.00;;;;;;5031128;28;20032;-57
2022/08/30 09:36:25;;;;;;;13.95;8.88;;;28.10;1.00;;;;;;5032333;28;20022;-56
2022/08/30 09:39:40;;;;;;;12.55;11.25;;;28.00;1.00;;;;;;5031159;28;20028;-57
2022/08/30 09:42:18;;;;;;;11.88;9.43;;;28.00;1.00;;;;;;5020578;28;20156;-56
2022/08/30 09:44:51;;;;;;;12.90;10.63;;;28.00;1.00;;;;;;5037166;28;20044;-54
2022/08/30 09:47:28;;;;;;;14.38;9.45;;;27.90;1.00;;;;;;5030407;28;20139;-57
2022/08/30 09:50:09;;;;;;;11.23;10.07;;;27.90;1.00;;;;;;5030908;28;20053;-57
2022/08/30 09:53:23;;;;;;;13.95;10.25;;;27.90;1.00;;;;;;5031018;28;20029;-54
2022/08/30 09:56:21;;;;;;;11.05;9.55;;;27.80;1.00;;;;;;5009911;28;20033;-58
2022/08/30 09:59:05;;;;;;;11.43;10.00;;;27.90;1.00;;;;;;4999964;28;20095;-58
2022/08/30 10:01:39;;;;;;;12.57;10.15;;;27.90;1.00;;;;;;5025286;28;20029;-56
2022/08/30 10:04:17;;;;;;;13.63;10.40;;;27.80;1.00;;;;;;5031245;28;20128;-58
2022/08/30 10:06:54;;;;;;;11.43;9.05;;;27.70;1.00;;;;;;5029549;28;20038;-56
2022/08/30 10:09:42;;;;;;;11.85;10.75;;;27.70;1.00;;;;;;5029658;28;20029;-57
2022/08/30 10:12:22;;;;;;;11.90;10.75;;;27.80;1.00;;;;;;5026243;28;20154;-57
2022/08/30 10:15:06;;;;;;;14.80;10.43;;;27.80;1.00;;;;;;5031777;28;20368;-55
2022/08/30 10:17:51;;;;;;;11.57;9.02;;;27.90;1.00;;;;;;5027071;28;20025;-56
2022/08/30 10:20:30;;;;;;;11.13;9.60;;;27.90;1.00;;;;;;5035231;28;20120;-56
2022/08/30 10:23:06;;;;;;;11.98;10.80;;;27.90;1.00;;;;;;5040152;28;20065;-55
2022/08/30 10:25:50;;;;;;;11.30;9.38;;;27.90;1.00;;;;;;5044396;28;20087;-58
2022/08/30 10:28:15;;;;;;;12.52;8.57;;;27.90;1.00;;;;;;5034398;28;20072;-58
2022/08/30 10:31:11;;;;;;;10.38;9.38;;;28.00;1.00;;;;;;5035197;28;20021;-57
2022/08/30 10:33:42;;;;;;;13.43;9.52;;;27.90;1.00;;;;;;5028671;28;20113;-58
2022/08/30 10:36:11;;;;;;;12.63;10.60;;;27.90;1.00;;;;;;5035122;28;20029;-58
2022/08/30 10:38:40;;;;;;;11.50;9.93;;;27.90;1.00;;;;;;5042613;28;20063;-57
2022/08/30 10:41:26;;;;;;;12.63;10.35;;;27.80;1.00;;;;;;5034763;28;20021;-56
2022/08/30 10:44:01;;;;;;;11.40;9.63;;;27.80;1.00;;;;;;5045527;28;20033;-57
2022/08/30 10:46:33;;;;;;;10.98;8.98;;;27.80;1.00;;;;;;5038713;28;20063;-58
2022/08/30 10:49:02;;;;;;;11.45;10.35;;;27.90;1.00;;;;;;5033288;28;20029;-57
2022/08/30 10:51:34;;;;;;;15.45;9.20;;;27.90;1.00;;;;;;5034970;28;20040;-57
2022/08/30 10:54:32;;;;;;;11.43;9.85;;;27.90;1.00;;;;;;5034797;28;20041;-57
2022/08/30 10:56:59;;;;;;;12.15;11.00;;;27.90;1.00;;;;;;5024821;28;20044;-58
2022/08/30 10:59:25;;;;;;;12.70;11.38;;;28.00;1.00;;;;;;5034741;28;20422;-57
2022/08/30 11:02:09;;;;;;;11.60;10.30;;;28.00;1.00;;;;;;5036035;28;20044;-57
2022/08/30 11:04:40;;;;;;;;;;;28.00;1.00;;;;;;5034888;28;20553;-57
2022/08/30 11:07:30;;;;;;;11.90;10.73;;;27.90;1.00;;;;;;5033413;28;19917;-55
2022/08/30 11:10:45;;;;;;;13.30;10.32;;;27.90;1.00;;;;;;5033679;28;20105;-55
2022/08/30 11:13:24;;;;;;;9.82;8.85;;;27.90;1.00;;;;;;5005702;28;20488;-56
2022/08/30 11:15:56;;;;;;;11.23;10.18;;;28.00;1.00;;;;;;5021445;28;20056;-56
2022/08/30 11:18:22;;;;;;;11.63;9.32;;;28.00;1.00;;;;;;5038284;28;20325;-56
2022/08/30 11:20:51;;;;;;;10.27;9.10;;;28.10;1.00;;;;;;5034127;28;20037;-57
2022/08/30 11:23:29;;;;;;;13.00;10.38;;;28.10;1.00;;;;;;5033345;28;20018;-58
2022/08/30 11:26:01;;;;;;;11.52;10.35;;;28.20;1.00;;;;;;5034216;28;20426;-56
2022/08/30 11:28:36;;;;;;;14.27;10.90;;;28.20;1.00;;;;;;5031919;28;20079;-55
2022/08/30 11:31:17;;;;;;;13.80;11.23;;;28.20;1.00;;;;;;5033139;28;20087;-54
2022/08/30 11:33:49;;;;;;;11.52;9.82;;;28.20;1.00;;;;;;5028483;28;20045;-56
2022/08/30 11:36:37;;;;;;;10.75;9.65;;;28.30;1.00;;;;;;5032034;28;20033;-52
2022/08/30 11:39:09;;;;;;;16.35;10.65;;;28.40;1.00;;;;;;5019665;28;20022;-56
2022/08/30 11:41:37;;;;;;;12.68;10.63;;;28.40;1.00;;;;;;5034055;28;20041;-54
2022/08/30 11:44:21;;;;;;;13.20;11.13;;;28.30;1.00;;;;;;5042670;28;20121;-57
2022/08/30 11:46:53;;;;;;;13.43;11.45;;;28.60;1.00;;;;;;5033329;28;20496;-56
2022/08/30 11:49:19;;;;;;;14.05;11.20;;;28.70;1.00;;;;;;5031262;28;20049;-56
2022/08/30 11:51:57;;;;;;;13.43;12.20;;;28.60;1.00;;;;;;5031526;28;20025;-57
2022/08/30 11:54:32;;;;;;;17.48;12.25;;;28.70;1.00;;;;;;5033872;28;20088;-55
2022/08/30 11:57:20;;;;;;;17.02;12.88;;;28.50;1.00;;;;;;5030106;28;20065;-54
2022/08/30 12:00:10;;;;;;;17.90;14.23;;;28.40;1.00;;;;;;5033531;28;20429;-57
2022/08/30 12:02:38;;;;;;;18.52;13.73;;;28.10;1.00;;;;;;5038095;28;20097;-56
2022/08/30 12:05:04;;;;;;;16.77;15.00;;;28.20;1.00;;;;;;5031967;28;20112;-56
2022/08/30 12:07:57;;;;;;;19.90;15.45;;;28.40;1.00;;;;;;5032548;28;20033;-56
2022/08/30 12:10:44;;;;;;;20.08;18.08;;;28.50;1.00;;;;;;5021871;28;20041;-52
2022/08/30 12:13:33;;;;;;;19.10;17.20;;;28.30;1.00;;;;;;5043498;28;20510;-54
2022/08/30 12:16:33;;;;;;;21.08;16.88;;;28.30;1.00;;;;;;5033012;28;20482;-56
2022/08/30 12:19:17;;;;;;;18.17;15.43;;;28.30;1.00;;;;;;5028692;28;20112;-55
2022/08/30 12:21:54;;;;;;;19.55;17.55;;;28.30;1.00;;;;;;5033046;28;20018;-53
2022/08/30 12:24:31;;;;;;;21.60;18.60;;;28.30;1.00;;;;;;5032960;28;20029;-55
2022/08/30 12:26:58;;;;;;;19.17;15.32;;;28.30;1.00;;;;;;5032267;28;20087;-56
2022/08/30 12:29:29;;;;;;;16.95;15.35;;;28.40;1.00;;;;;;5032100;28;20021;-55
2022/08/30 12:32:23;;;;;;;18.88;16.98;;;28.50;1.00;;;;;;5032747;28;20022;-55
2022/08/30 12:35:05;;;;;;;17.87;16.13;;;28.40;1.00;;;;;;5030849;28;20391;-55
2022/08/30 12:37:37;;;;;;;17.20;15.38;;;28.50;1.00;;;;;;5034151;28;20791;-56
2022/08/30 12:40:21;;;;;;;16.05;14.27;;;28.60;1.00;;;;;;5037947;28;20022;-58
2022/08/30 12:42:57;;;;;;;16.83;14.85;;;28.60;1.00;;;;;;5031740;28;20129;-55
2022/08/30 12:45:26;;;;;;;18.23;15.40;;;28.70;1.00;;;;;;5026249;28;20033;-57
2022/08/30 12:48:10;;;;;;;18.08;16.38;;;28.60;1.00;;;;;;5031681;28;20076;-56
2022/08/30 12:50:52;;;;;;;18.30;15.15;;;28.60;1.00;;;;;;5031082;28;20010;-56
2022/08/30 12:53:40;;;;;;;17.45;15.43;;;28.80;1.00;;;;;;5034914;28;20028;-58
2022/08/30 12:56:09;;;;;;;15.35;13.75;;;29.10;1.00;;;;;;5034742;28;20029;-56
2022/08/30 12:58:37;;;;;;;14.38;12.88;;;29.40;1.00;;;;;;5031325;28;20022;-58
2022/08/30 13:01:29;;;;;;;15.63;13.55;;;29.70;1.00;;;;;;5031372;28;20380;-56
2022/08/30 13:04:18;;;;;;;15.48;12.98;;;29.90;1.00;;;;;;5031516;28;20048;-57
2022/08/30 13:06:59;;;;;;;15.73;14.13;;;30.30;1.00;;;;;;5019718;28;20049;-56
2022/08/30 13:09:38;;;;;;;17.58;15.93;;;30.90;1.00;;;;;;5040486;28;21426;-56
2022/08/30 13:12:08;;;;;;;18.50;16.92;;;31.50;1.00;;;;;;5032395;28;20049;-55
2022/08/30 13:14:44;;;;;;;17.17;15.38;;;32.10;1.00;;;;;;5038826;28;20024;-54